createdAt,value
2023-05-03T00:01:10.509Z,8.85
2023-05-03T00:04:09.381Z,8.98
2023-05-03T00:07:07.367Z,9.20
2023-05-03T00:10:05.885Z,8.70
2023-05-03T00:13:03.782Z,8.80
2023-05-03T00:16:01.963Z,8.50
2023-05-03T00:18:59.989Z,8.45
2023-05-03T00:21:58.034Z,8.70
2023-05-03T00:24:57.027Z,8.82
2023-05-03T00:27:54.947Z,8.02
2023-05-03T00:30:53.939Z,9.15
2023-05-03T00:33:52.355Z,9.23
2023-05-03T00:36:50.228Z,8.50
2023-05-03T00:39:48.258Z,8.52
2023-05-03T00:42:47.567Z,8.48
2023-05-03T00:45:46.995Z,8.52
2023-05-03T00:48:48.718Z,9.25
2023-05-03T00:51:46.689Z,9.10
2023-05-03T00:54:44.870Z,9.50
2023-05-03T00:57:42.806Z,10.05
2023-05-03T01:00:40.615Z,9.88
2023-05-03T01:03:42.116Z,10.15
2023-05-03T01:06:48.591Z,9.57
2023-05-03T01:10:17.158Z,10.00
2023-05-03T01:13:29.075Z,10.40
2023-05-03T01:16:48.464Z,10.13
2023-05-03T01:19:52.273Z,9.80
2023-05-03T01:23:11.252Z,10.23
2023-05-03T01:26:25.730Z,11.10
2023-05-03T01:29:23.657Z,10.48
2023-05-03T01:32:47.486Z,11.43
2023-05-03T01:35:55.418Z,10.98
2023-05-03T01:38:53.426Z,10.75
2023-05-03T01:41:52.829Z,11.13
2023-05-03T01:44:51.578Z,10.38
2023-05-03T01:47:49.685Z,10.23
2023-05-03T01:50:47.532Z,11.10
2023-05-03T01:53:45.507Z,10.68
2023-05-03T01:56:43.377Z,11.05
2023-05-03T01:59:41.518Z,10.77
2023-05-03T02:02:39.380Z,11.98
2023-05-03T02:05:37.543Z,11.77
2023-05-03T02:08:35.349Z,11.82
2023-05-03T02:11:33.299Z,12.57
2023-05-03T02:14:31.165Z,11.30
2023-05-03T02:17:29.516Z,12.43
2023-05-03T02:20:27.371Z,13.63
2023-05-03T02:23:25.478Z,12.10
2023-05-03T02:26:23.255Z,11.73
2023-05-03T02:29:21.211Z,12.82
2023-05-03T02:32:19.339Z,10.90
2023-05-03T02:35:17.465Z,11.85
2023-05-03T02:38:15.394Z,10.43
2023-05-03T02:41:13.316Z,11.77
2023-05-03T02:44:12.297Z,11.35
2023-05-03T02:47:11.308Z,11.13
2023-05-03T02:50:09.447Z,10.98
2023-05-03T02:53:08.201Z,11.48
2023-05-03T02:56:06.486Z,10.88
2023-05-03T02:59:04.646Z,11.70
2023-05-03T03:02:02.629Z,12.18
2023-05-03T03:05:01.502Z,10.63
2023-05-03T03:07:59.317Z,10.80
2023-05-03T03:10:57.230Z,10.70
2023-05-03T03:13:55.042Z,12.48
2023-05-03T03:16:53.442Z,11.65
2023-05-03T03:19:51.306Z,11.10
2023-05-03T03:22:49.230Z,11.90
2023-05-03T03:25:47.024Z,11.52
2023-05-03T03:28:45.531Z,11.35
2023-05-03T03:31:43.502Z,10.73
2023-05-03T03:34:41.609Z,11.32
2023-05-03T03:37:40.656Z,11.32
2023-05-03T03:40:38.641Z,10.88
2023-05-03T03:43:36.473Z,11.43
2023-05-03T03:46:34.538Z,12.25
2023-05-03T03:49:32.411Z,12.05
2023-05-03T03:52:30.587Z,11.43
2023-05-03T03:55:28.337Z,11.07
2023-05-03T03:58:26.813Z,11.80
2023-05-03T04:01:25.581Z,11.45
2023-05-03T04:04:23.722Z,11.57
2023-05-03T04:07:22.313Z,11.25
2023-05-03T04:10:20.284Z,10.95
2023-05-03T04:13:18.085Z,10.82
2023-05-03T04:16:16.208Z,11.25
2023-05-03T04:19:14.436Z,10.00
2023-05-03T04:22:12.534Z,11.38
2023-05-03T04:25:14.543Z,10.82
2023-05-03T04:28:12.559Z,10.88
2023-05-03T04:31:10.512Z,10.85
2023-05-03T04:34:08.494Z,10.63
2023-05-03T04:37:06.525Z,10.80
2023-05-03T04:40:08.489Z,11.52
2023-05-03T04:43:06.273Z,12.07
2023-05-03T04:46:05.492Z,14.40
2023-05-03T04:49:03.425Z,13.90
2023-05-03T04:52:01.809Z,12.48
2023-05-03T04:54:59.639Z,12.65
2023-05-03T04:57:57.598Z,12.18
2023-05-03T05:00:55.404Z,11.40
2023-05-03T05:03:54.335Z,12.07
2023-05-03T05:06:54.332Z,12.38
2023-05-03T05:09:52.284Z,11.63
2023-05-03T05:12:50.107Z,12.38
2023-05-03T05:15:48.017Z,11.68
2023-05-03T05:18:46.249Z,11.65
2023-05-03T05:21:47.778Z,10.63
2023-05-03T05:24:45.756Z,12.10
2023-05-03T05:27:43.759Z,10.68
2023-05-03T05:30:42.069Z,11.70
2023-05-03T05:33:39.988Z,11.65
2023-05-03T05:36:37.948Z,11.68
2023-05-03T05:39:35.962Z,11.15
2023-05-03T05:42:33.790Z,11.43
2023-05-03T05:45:31.952Z,11.77
2023-05-03T05:48:29.764Z,11.23
2023-05-03T05:51:28.665Z,11.18
2023-05-03T05:54:28.496Z,11.05
2023-05-03T05:57:27.317Z,10.63
2023-05-03T06:00:25.311Z,10.93
2023-05-03T06:03:23.321Z,11.15
2023-05-03T06:06:21.199Z,11.13
2023-05-03T06:09:24.829Z,11.43
2023-05-03T06:12:23.056Z,11.07
2023-05-03T06:15:21.011Z,11.07
2023-05-03T06:18:18.867Z,11.52
2023-05-03T06:21:17.267Z,11.90
2023-05-03T06:24:22.071Z,11.60
2023-05-03T06:27:20.081Z,13.60
2023-05-03T06:30:18.049Z,11.52
2023-05-03T06:33:16.244Z,11.48
2023-05-03T06:36:14.511Z,9.75
2023-05-03T06:39:12.447Z,10.35
2023-05-03T06:42:10.454Z,10.95
2023-05-03T06:45:09.022Z,11.43
2023-05-03T06:48:07.303Z,11.95
2023-05-03T06:51:05.890Z,11.90
2023-05-03T06:54:08.726Z,12.93
2023-05-03T06:57:06.717Z,11.77
2023-05-03T07:00:07.787Z,10.30
2023-05-03T07:03:06.645Z,10.80
2023-05-03T07:06:04.839Z,11.27
2023-05-03T07:09:02.768Z,11.25
2023-05-03T07:12:00.558Z,11.10
2023-05-03T07:14:58.818Z,12.18
2023-05-03T07:17:56.766Z,11.85
2023-05-03T07:20:55.109Z,11.88
2023-05-03T07:23:53.012Z,10.05
2023-05-03T07:26:50.919Z,11.02
2023-05-03T07:29:48.817Z,10.68
2023-05-03T07:32:47.338Z,9.57
2023-05-03T07:35:47.492Z,10.52
2023-05-03T07:38:45.465Z,11.43
2023-05-03T07:41:43.258Z,10.05
2023-05-03T07:44:41.805Z,10.35
2023-05-03T07:47:40.805Z,10.90
2023-05-03T07:50:38.862Z,11.45
2023-05-03T07:53:36.703Z,11.38
2023-05-03T07:56:34.685Z,10.40
2023-05-03T07:59:32.507Z,10.00
2023-05-03T08:02:30.504Z,11.93
2023-05-03T08:05:28.456Z,11.70
2023-05-03T08:08:26.415Z,10.77
2023-05-03T08:11:24.616Z,10.90
2023-05-03T08:14:22.691Z,10.52
2023-05-03T08:17:21.494Z,10.50
2023-05-03T08:20:19.470Z,10.48
2023-05-03T08:23:17.247Z,9.52
2023-05-03T08:26:15.255Z,11.10
2023-05-03T08:29:13.067Z,10.55
2023-05-03T08:32:11.776Z,10.23
2023-05-03T08:35:09.828Z,10.88
2023-05-03T08:38:07.959Z,11.70
2023-05-03T08:41:17.788Z,11.15
2023-05-03T08:44:23.354Z,10.45
2023-05-03T08:47:22.555Z,11.55
2023-05-03T08:50:22.184Z,10.43
2023-05-03T08:53:29.150Z,10.63
2023-05-03T08:56:34.250Z,10.90
2023-05-03T08:59:32.093Z,11.70
2023-05-03T09:02:30.209Z,11.27
2023-05-03T09:05:34.589Z,10.23
2023-05-03T09:08:43.152Z,10.80
2023-05-03T09:11:41.033Z,11.65
2023-05-03T09:14:45.023Z,13.02
2023-05-03T09:17:42.980Z,10.30
2023-05-03T09:20:43.111Z,11.73
2023-05-03T09:23:41.819Z,11.73
2023-05-03T09:26:41.507Z,10.60
2023-05-03T09:29:39.300Z,10.30
2023-05-03T09:32:49.545Z,10.27
2023-05-03T09:36:04.141Z,10.35
2023-05-03T09:39:17.804Z,11.35
2023-05-03T09:42:18.862Z,11.27
2023-05-03T09:45:25.133Z,10.05
2023-05-03T09:48:27.639Z,10.25
2023-05-03T09:51:25.719Z,9.68
2023-05-03T09:54:25.651Z,10.02
2023-05-03T09:57:24.234Z,9.82
2023-05-03T10:00:22.590Z,11.38
2023-05-03T10:03:29.223Z,10.82
2023-05-03T10:06:42.648Z,10.15
2023-05-03T10:09:44.996Z,8.85
2023-05-03T10:12:43.138Z,8.50
2023-05-03T10:15:43.576Z,10.63
2023-05-03T10:18:50.022Z,10.23
2023-05-03T10:21:57.868Z,10.00
2023-05-03T10:25:14.077Z,9.77
2023-05-03T10:28:13.890Z,8.82
2023-05-03T10:31:42.462Z,9.50
2023-05-03T10:34:41.090Z,9.77
2023-05-03T10:37:43.034Z,9.68
2023-05-03T10:40:43.830Z,10.23
2023-05-03T10:43:43.193Z,10.70
2023-05-03T10:46:44.647Z,11.00
2023-05-03T10:49:42.967Z,10.43
2023-05-03T10:52:55.404Z,10.60
2023-05-03T10:56:09.769Z,9.18
2023-05-03T10:59:07.644Z,11.65
2023-05-03T11:02:06.723Z,10.05
2023-05-03T11:05:09.834Z,10.10
2023-05-03T11:08:10.408Z,9.57
2023-05-03T11:11:10.271Z,7.43
2023-05-03T11:14:09.164Z,9.40
2023-05-03T11:17:07.592Z,8.30
2023-05-03T11:20:09.224Z,8.02
2023-05-03T11:23:07.970Z,10.95
2023-05-03T11:26:10.345Z,11.05
2023-05-03T11:29:11.254Z,9.80
2023-05-03T11:32:11.017Z,8.55
2023-05-03T11:35:09.967Z,6.85
2023-05-03T11:38:07.775Z,6.78
2023-05-03T11:41:16.989Z,10.05
2023-05-03T11:44:17.627Z,7.30
2023-05-03T11:47:16.477Z,7.60
2023-05-03T11:50:14.429Z,8.60
2023-05-03T11:53:13.870Z,7.43
2023-05-03T11:56:15.867Z,8.30
2023-05-03T11:59:14.009Z,6.72
2023-05-03T12:02:15.685Z,7.57
2023-05-03T12:05:16.209Z,9.30
2023-05-03T12:08:17.600Z,8.85
2023-05-03T12:11:18.040Z,7.60
2023-05-03T12:14:16.957Z,7.47
2023-05-03T12:17:17.532Z,6.40
2023-05-03T12:23:21.977Z,6.90
2023-05-03T12:26:21.003Z,7.78
2023-05-03T12:29:20.142Z,9.88
2023-05-03T12:32:18.474Z,6.72
2023-05-03T12:35:19.740Z,7.43
2023-05-03T12:38:23.272Z,8.10
2023-05-03T12:41:52.000Z,6.80
2023-05-03T12:44:43.449Z,6.00
2023-05-03T12:47:44.459Z,5.82
2023-05-03T12:50:45.643Z,5.72
2023-05-03T12:53:47.067Z,7.13
2023-05-03T12:56:47.997Z,6.07
2023-05-03T12:59:52.353Z,5.93
2023-05-03T13:05:52.041Z,7.03
2023-05-03T13:08:51.020Z,5.72
2023-05-03T13:11:50.583Z,5.55
2023-05-03T13:14:49.428Z,4.18
2023-05-03T13:17:49.072Z,5.85
2023-05-03T13:20:49.573Z,5.80
2023-05-03T13:23:48.011Z,6.72
2023-05-03T13:26:46.557Z,5.13
2023-05-03T13:29:46.831Z,5.90
2023-05-03T13:32:46.308Z,5.97
2023-05-03T13:35:45.874Z,5.40
2023-05-03T13:38:45.792Z,5.45
2023-05-03T13:41:46.448Z,5.55
2023-05-03T13:44:47.953Z,5.35
2023-05-03T13:50:47.058Z,6.10
2023-05-03T13:53:45.518Z,5.95
2023-05-03T13:56:43.478Z,5.15
2023-05-03T13:59:42.116Z,5.53
2023-05-03T14:02:39.907Z,5.20
2023-05-03T14:05:38.001Z,5.45
2023-05-03T14:08:36.934Z,5.30
2023-05-03T14:11:34.940Z,5.43
2023-05-03T14:14:32.764Z,5.45
2023-05-03T14:17:31.044Z,5.50
2023-05-03T14:20:28.818Z,6.70
2023-05-03T14:23:27.118Z,5.95
2023-05-03T14:26:25.316Z,5.82
2023-05-03T14:29:24.265Z,7.47
2023-05-03T14:32:24.855Z,8.65
2023-05-03T14:35:23.387Z,6.70
2023-05-03T14:38:21.305Z,6.68
2023-05-03T14:41:19.288Z,5.80
2023-05-03T14:44:17.925Z,5.85
2023-05-03T14:47:16.064Z,5.78
2023-05-03T14:50:14.551Z,5.65
2023-05-03T14:53:13.529Z,5.22
2023-05-03T14:56:11.456Z,5.22
2023-05-03T14:59:09.903Z,5.45
2023-05-03T15:02:07.812Z,4.97
2023-05-03T15:05:06.282Z,5.40
2023-05-03T15:08:04.547Z,6.13
2023-05-03T15:11:02.445Z,4.65
2023-05-03T15:14:00.292Z,4.57
2023-05-03T15:16:58.248Z,4.93
2023-05-03T15:19:57.265Z,4.13
2023-05-03T15:22:55.209Z,4.88
2023-05-03T15:25:53.037Z,4.40
2023-05-03T15:28:51.253Z,4.95
2023-05-03T15:31:49.070Z,4.75
2023-05-03T15:34:47.362Z,4.32
2023-05-03T15:37:45.373Z,5.53
2023-05-03T15:40:43.381Z,3.70
2023-05-03T15:43:41.471Z,4.30
2023-05-03T15:46:42.203Z,4.57
2023-05-03T15:49:40.644Z,4.55
2023-05-03T15:52:38.571Z,5.18
2023-05-03T15:55:36.608Z,5.55
2023-05-03T15:58:34.751Z,5.25
2023-05-03T16:01:32.656Z,5.57
2023-05-03T16:04:30.643Z,5.60
2023-05-03T16:07:29.165Z,4.90
2023-05-03T16:10:27.476Z,4.45
2023-05-03T16:13:26.005Z,4.82
2023-05-03T16:16:23.998Z,5.47
2023-05-03T16:19:24.246Z,5.03
2023-05-03T16:22:22.722Z,5.07
2023-05-03T16:25:20.571Z,5.07
2023-05-03T16:28:20.204Z,5.75
2023-05-03T16:31:18.319Z,4.90
2023-05-03T16:34:16.790Z,5.32
2023-05-03T16:37:14.632Z,5.20
2023-05-03T16:40:12.685Z,6.03
2023-05-03T16:43:10.921Z,7.30
2023-05-03T16:46:09.022Z,8.82
2023-05-03T16:49:07.052Z,6.50
2023-05-03T16:52:05.109Z,6.45
2023-05-03T16:55:03.987Z,5.70
2023-05-03T16:58:02.582Z,6.03
2023-05-03T17:01:01.021Z,6.13
2023-05-03T17:03:59.019Z,5.88
2023-05-03T17:06:56.976Z,5.75
2023-05-03T17:09:55.001Z,5.38
2023-05-03T17:12:53.092Z,6.05
2023-05-03T17:15:51.141Z,6.05
2023-05-03T17:18:58.885Z,5.88
2023-05-03T17:21:56.919Z,5.60
2023-05-03T17:24:55.822Z,5.72
2023-05-03T17:27:54.314Z,6.15
2023-05-03T17:30:54.082Z,5.55
2023-05-03T17:33:52.180Z,5.93
2023-05-03T17:36:50.516Z,5.13
2023-05-03T17:39:48.402Z,5.13
2023-05-03T17:42:47.593Z,6.43
2023-05-03T17:45:48.396Z,5.90
2023-05-03T17:48:48.841Z,5.40
2023-05-03T17:51:46.851Z,5.93
2023-05-03T17:54:44.781Z,5.97
2023-05-03T17:57:42.783Z,6.00
2023-05-03T18:00:40.596Z,5.57
2023-05-03T18:03:39.141Z,5.95
2023-05-03T18:06:37.138Z,5.80
2023-05-03T18:09:35.083Z,6.15
2023-05-03T18:12:33.201Z,5.68
2023-05-03T18:15:40.151Z,5.85
2023-05-03T18:18:39.323Z,6.03
2023-05-03T18:21:37.868Z,5.45
2023-05-03T18:24:36.987Z,6.15
2023-05-03T18:27:38.075Z,6.10
2023-05-03T18:30:35.908Z,5.88
2023-05-03T18:33:34.791Z,6.57
2023-05-03T18:36:32.865Z,5.78
2023-05-03T18:39:30.912Z,5.82
2023-05-03T18:42:28.757Z,5.75
2023-05-03T18:45:26.677Z,5.50
2023-05-03T18:48:24.472Z,5.88
2023-05-03T18:51:22.843Z,5.55
2023-05-03T18:54:20.928Z,5.72
2023-05-03T18:57:19.494Z,6.47
2023-05-03T19:00:20.649Z,5.90
2023-05-03T19:03:18.730Z,6.55
2023-05-03T19:06:16.601Z,6.72
2023-05-03T19:09:14.777Z,6.90
2023-05-03T19:12:12.775Z,7.53
2023-05-03T19:15:12.057Z,6.53
2023-05-03T19:18:10.642Z,6.63
2023-05-03T19:21:10.559Z,6.40
2023-05-03T19:24:12.095Z,7.07
2023-05-03T19:27:10.560Z,6.60
2023-05-03T19:30:10.038Z,6.97
2023-05-03T19:33:08.262Z,7.53
2023-05-03T19:36:07.456Z,7.43
2023-05-03T19:39:05.503Z,7.10
2023-05-03T19:42:04.454Z,7.35
2023-05-03T19:45:04.648Z,6.70
2023-05-03T19:48:02.643Z,6.78
2023-05-03T19:51:01.164Z,6.05
2023-05-03T19:54:01.576Z,7.68
2023-05-03T19:57:05.348Z,6.88
2023-05-03T20:00:05.438Z,6.07
2023-05-03T20:03:03.767Z,7.32
2023-05-03T20:06:02.001Z,6.18
2023-05-03T20:08:59.896Z,6.78
2023-05-03T20:11:59.312Z,6.82
2023-05-03T20:14:57.607Z,7.18
2023-05-03T20:17:55.397Z,7.22
2023-05-03T20:20:53.359Z,6.43
2023-05-03T20:23:51.722Z,7.28
2023-05-03T20:26:49.784Z,6.55
2023-05-03T20:29:47.769Z,5.97
2023-05-03T20:32:45.890Z,5.78
2023-05-03T20:35:43.843Z,5.93
2023-05-03T20:38:41.771Z,5.80
2023-05-03T20:41:39.548Z,5.65
2023-05-03T20:44:37.416Z,5.75
2023-05-03T20:47:35.675Z,5.88
2023-05-03T20:50:33.673Z,5.60
2023-05-03T20:53:32.273Z,6.15
2023-05-03T20:56:32.366Z,6.00
2023-05-03T20:59:30.569Z,5.57
2023-05-03T21:02:28.600Z,5.78
2023-05-03T21:05:27.376Z,5.35
2023-05-03T21:08:25.712Z,6.00
2023-05-03T21:11:23.573Z,5.88
2023-05-03T21:14:21.509Z,4.97
2023-05-03T21:17:19.418Z,5.45
2023-05-03T21:20:17.529Z,6.05
2023-05-03T21:23:15.447Z,5.68
2023-05-03T21:26:14.019Z,5.93
2023-05-03T21:29:12.743Z,5.47
2023-05-03T21:32:10.750Z,5.28
2023-05-03T21:35:09.788Z,5.75
2023-05-03T21:38:08.419Z,5.68
2023-05-03T21:41:07.648Z,5.07
2023-05-03T21:44:05.715Z,5.38
2023-05-03T21:47:03.679Z,5.93
2023-05-03T21:50:02.334Z,5.43
2023-05-03T21:53:00.217Z,5.47
2023-05-03T21:55:58.088Z,5.68
2023-05-03T21:58:55.904Z,5.40
2023-05-03T22:01:54.029Z,5.63
2023-05-03T22:04:52.063Z,5.35
2023-05-03T22:07:50.764Z,5.40
2023-05-03T22:10:48.628Z,5.55
2023-05-03T22:14:03.251Z,5.18
2023-05-03T22:17:04.390Z,4.95
2023-05-03T22:20:02.678Z,5.43
2023-05-03T22:23:00.920Z,5.55
2023-05-03T22:25:59.853Z,5.53
2023-05-03T22:28:57.749Z,4.95
2023-05-03T22:31:55.880Z,5.15
2023-05-03T22:34:53.751Z,5.55
2023-05-03T22:37:52.721Z,4.80
2023-05-03T22:40:50.717Z,5.18
2023-05-03T22:43:48.668Z,4.70
2023-05-03T22:46:46.463Z,5.53
2023-05-03T22:49:44.435Z,5.25
2023-05-03T22:52:42.530Z,5.53
2023-05-03T22:55:40.449Z,5.13
2023-05-03T22:58:38.291Z,5.05
2023-05-03T23:01:36.291Z,4.90
2023-05-03T23:04:34.067Z,5.35
2023-05-03T23:07:32.227Z,5.20
2023-05-03T23:10:30.025Z,4.95
2023-05-03T23:13:27.981Z,5.68
2023-05-03T23:16:25.877Z,4.75
2023-05-03T23:19:23.968Z,5.43
2023-05-03T23:22:21.774Z,5.50
2023-05-03T23:25:19.674Z,5.00
2023-05-03T23:28:17.498Z,5.22
2023-05-03T23:31:16.304Z,6.28
2023-05-03T23:34:14.854Z,6.18
2023-05-03T23:37:13.008Z,6.80
2023-05-03T23:40:11.286Z,5.80
2023-05-03T23:43:09.444Z,5.50
2023-05-03T23:46:07.546Z,5.53
2023-05-03T23:49:08.293Z,5.28
2023-05-03T23:52:07.037Z,5.57
2023-05-03T23:55:06.091Z,5.57
2023-05-03T23:58:04.168Z,6.95
